createdAt,value
2022-12-03T00:03:16.385Z,80.81
2022-12-03T00:08:17.747Z,80.55
2022-12-03T00:13:19.049Z,79.86
2022-12-03T00:18:20.304Z,79.88
2022-12-03T00:23:21.529Z,79.47
2022-12-03T00:28:22.763Z,78.80
2022-12-03T00:33:24.000Z,79.06
2022-12-03T00:38:25.216Z,79.56
2022-12-03T00:43:26.499Z,79.95
2022-12-03T00:48:27.815Z,80.03
2022-12-03T00:53:29.080Z,79.77
2022-12-03T00:58:30.327Z,79.64
2022-12-03T01:03:31.528Z,79.77
2022-12-03T01:08:32.729Z,79.38
2022-12-03T01:13:33.994Z,79.40
2022-12-03T01:18:35.267Z,79.16
2022-12-03T01:23:36.574Z,79.14
2022-12-03T01:28:37.851Z,79.30
2022-12-03T01:33:39.108Z,79.83
2022-12-03T01:38:40.468Z,80.11
2022-12-03T01:43:41.750Z,80.37
2022-12-03T01:48:43.064Z,81.02
2022-12-03T01:53:44.357Z,81.64
2022-12-03T01:58:45.613Z,80.98
2022-12-03T02:03:47.017Z,80.25
2022-12-03T02:08:48.275Z,79.78
2022-12-03T02:13:49.755Z,80.22
2022-12-03T02:18:50.998Z,81.11
2022-12-03T02:23:52.312Z,80.91
2022-12-03T02:28:53.571Z,81.08
2022-12-03T02:33:54.857Z,81.12
2022-12-03T02:38:56.065Z,80.60
2022-12-03T02:43:57.324Z,80.54
2022-12-03T02:48:58.576Z,80.66
2022-12-03T02:53:59.828Z,80.97
2022-12-03T02:59:01.234Z,80.99
2022-12-03T03:04:03.281Z,81.16
2022-12-03T03:09:04.562Z,79.62
2022-12-03T03:14:05.829Z,79.77
2022-12-03T03:19:07.046Z,78.59
2022-12-03T03:24:08.417Z,79.89
2022-12-03T03:29:09.672Z,80.70
2022-12-03T03:34:10.978Z,80.56
2022-12-03T03:39:12.430Z,81.11
2022-12-03T03:44:13.665Z,80.91
2022-12-03T03:49:14.908Z,79.95
2022-12-03T03:54:16.205Z,80.45
2022-12-03T03:59:17.649Z,80.95
2022-12-03T04:04:19.689Z,81.15
2022-12-03T04:09:21.061Z,80.77
2022-12-03T04:14:22.264Z,80.48
2022-12-03T04:19:23.517Z,80.77
2022-12-03T04:24:24.728Z,80.30
2022-12-03T04:29:25.979Z,80.53
2022-12-03T04:34:46.174Z,80.45
2022-12-03T04:39:47.383Z,81.35
2022-12-03T04:44:48.581Z,81.15
2022-12-03T04:49:49.808Z,81.77
2022-12-03T04:54:51.376Z,81.42
2022-12-03T04:59:52.825Z,80.30
2022-12-03T05:04:54.400Z,80.17
2022-12-03T05:09:55.914Z,79.50
2022-12-03T05:14:57.150Z,80.45
2022-12-03T05:20:17.292Z,80.78
2022-12-03T05:25:18.504Z,80.36
2022-12-03T05:30:19.869Z,81.58
2022-12-03T05:35:21.143Z,81.06
2022-12-03T05:40:22.522Z,80.45
2022-12-03T05:45:23.926Z,80.63
2022-12-03T05:50:25.188Z,80.80
2022-12-03T05:55:26.480Z,80.35
2022-12-03T06:00:27.776Z,80.01
2022-12-03T06:05:29.070Z,79.96
2022-12-03T06:10:30.423Z,80.35
2022-12-03T06:15:31.847Z,81.96
2022-12-03T06:20:33.170Z,81.68
2022-12-03T06:25:34.456Z,81.53
2022-12-03T06:30:35.942Z,80.76
2022-12-03T06:35:37.227Z,81.30
2022-12-03T06:40:38.552Z,81.31
2022-12-03T06:45:44.558Z,81.49
2022-12-03T06:50:48.793Z,81.47
2022-12-03T06:55:50.098Z,82.02
2022-12-03T07:00:51.461Z,82.65
2022-12-03T07:05:52.828Z,82.78
2022-12-03T07:10:54.275Z,83.07
2022-12-03T07:15:55.595Z,83.64
2022-12-03T07:20:56.877Z,83.53
2022-12-03T07:25:58.140Z,82.76
2022-12-03T07:30:59.462Z,81.99
2022-12-03T07:36:00.765Z,81.77
2022-12-03T07:41:01.988Z,81.11
2022-12-03T07:46:03.278Z,81.40
2022-12-03T07:51:04.567Z,81.31
2022-12-03T07:56:05.884Z,79.95
2022-12-03T08:01:07.332Z,79.55
2022-12-03T08:06:08.645Z,80.04
2022-12-03T08:11:09.986Z,80.76
2022-12-03T08:16:11.366Z,80.61
2022-12-03T08:21:12.644Z,79.87
2022-12-03T08:26:13.891Z,80.53
2022-12-03T08:31:18.550Z,80.03
2022-12-03T08:36:20.386Z,79.75
2022-12-03T08:41:41.625Z,79.82
2022-12-03T08:46:42.847Z,80.58
2022-12-03T08:51:44.386Z,80.99
2022-12-03T08:56:45.675Z,81.36
2022-12-03T09:01:47.049Z,80.72
2022-12-03T09:07:04.204Z,80.32
2022-12-03T09:12:05.458Z,79.88
2022-12-03T09:17:06.744Z,80.34
2022-12-03T09:22:08.113Z,79.69
2022-12-03T09:27:09.382Z,79.49
2022-12-03T09:32:16.677Z,78.59
2022-12-03T09:37:19.449Z,77.86
2022-12-03T09:42:20.678Z,77.89
2022-12-03T09:47:22.120Z,79.66
2022-12-03T09:52:23.496Z,79.63
2022-12-03T09:57:27.302Z,79.44
2022-12-03T10:02:28.614Z,80.13
2022-12-03T10:07:29.938Z,80.06
2022-12-03T10:12:31.222Z,79.65
2022-12-03T10:17:32.436Z,79.36
2022-12-03T10:22:37.281Z,79.67
2022-12-03T10:27:38.580Z,79.96
2022-12-03T10:32:39.923Z,79.49
2022-12-03T10:37:41.166Z,78.99
2022-12-03T10:42:42.567Z,78.54
2022-12-03T10:47:43.925Z,77.73
2022-12-03T10:52:45.254Z,77.87
2022-12-03T10:57:47.259Z,77.61
2022-12-03T11:02:54.824Z,78.39
2022-12-03T11:07:57.961Z,77.74
2022-12-03T11:12:59.274Z,78.51
2022-12-03T11:18:00.721Z,77.08
2022-12-03T11:23:01.950Z,75.70
2022-12-03T11:28:03.381Z,76.19
2022-12-03T11:33:04.725Z,76.89
2022-12-03T11:38:05.933Z,77.44
2022-12-03T11:43:07.124Z,77.78
2022-12-03T11:48:08.452Z,76.98
2022-12-03T11:53:09.738Z,76.68
2022-12-03T11:58:10.971Z,76.51
2022-12-03T12:03:12.394Z,76.66
2022-12-03T12:08:13.713Z,75.58
2022-12-03T12:13:15.054Z,75.43
2022-12-03T12:18:16.334Z,75.27
2022-12-03T12:23:17.606Z,75.57
2022-12-03T12:33:20.862Z,75.55
2022-12-03T12:38:22.218Z,75.34
2022-12-03T12:43:24.587Z,76.22
2022-12-03T12:48:26.183Z,75.78
2022-12-03T12:53:27.443Z,75.71
2022-12-03T12:58:28.660Z,75.82
2022-12-03T13:03:29.894Z,76.06
2022-12-03T13:08:31.129Z,76.20
2022-12-03T13:13:32.418Z,76.05
2022-12-03T13:18:33.758Z,75.88
2022-12-03T13:23:35.028Z,76.79
2022-12-03T13:28:36.305Z,76.43
2022-12-03T13:33:37.506Z,75.64
2022-12-03T13:38:38.760Z,75.58
2022-12-03T13:43:44.332Z,75.44
2022-12-03T13:48:45.979Z,76.28
2022-12-03T13:53:47.255Z,75.88
2022-12-03T13:58:48.489Z,75.83
2022-12-03T14:03:49.714Z,75.90
2022-12-03T14:08:51.429Z,75.02
2022-12-03T14:13:52.638Z,75.14
2022-12-03T14:18:53.876Z,75.30
2022-12-03T14:23:55.097Z,75.55
2022-12-03T14:28:56.386Z,75.83
2022-12-03T14:33:57.706Z,87.06
2022-12-03T14:38:58.974Z,73.58
2022-12-03T14:44:00.224Z,70.78
2022-12-03T14:49:01.478Z,75.87
2022-12-03T14:54:02.769Z,80.35
2022-12-03T14:59:04.063Z,73.87
2022-12-03T15:04:05.326Z,71.47
2022-12-03T15:09:06.647Z,76.04
2022-12-03T15:14:08.278Z,70.89
2022-12-03T15:19:09.699Z,85.23
2022-12-03T15:24:32.981Z,69.64
2022-12-03T15:29:34.256Z,70.44
2022-12-03T15:34:35.677Z,71.49
2022-12-03T15:39:37.613Z,71.90
2022-12-03T15:44:38.890Z,72.13
2022-12-03T15:49:40.132Z,74.06
2022-12-03T15:54:41.395Z,69.06
2022-12-03T15:59:43.219Z,69.24
2022-12-03T16:04:44.493Z,70.20
2022-12-03T16:09:45.946Z,72.40
2022-12-03T16:14:47.194Z,73.68
2022-12-03T16:19:49.088Z,74.11
2022-12-03T16:24:50.517Z,74.79
2022-12-03T16:29:52.006Z,73.94
2022-12-03T16:34:53.522Z,74.55
2022-12-03T16:39:54.973Z,74.38
2022-12-03T16:44:59.450Z,74.13
2022-12-03T16:50:00.809Z,74.96
2022-12-03T16:55:02.078Z,86.33
2022-12-03T17:00:03.474Z,75.06
2022-12-03T17:05:04.741Z,74.81
2022-12-03T17:10:06.077Z,75.59
2022-12-03T17:15:07.316Z,75.73
2022-12-03T17:20:08.720Z,75.90
2022-12-03T17:25:09.933Z,76.85
2022-12-03T17:30:11.213Z,77.04
2022-12-03T17:35:12.484Z,77.13
2022-12-03T17:40:13.716Z,76.76
2022-12-03T17:45:14.912Z,78.31
2022-12-03T17:50:16.124Z,76.28
2022-12-03T17:55:27.704Z,77.02
2022-12-03T18:00:32.524Z,77.11
2022-12-03T18:05:33.746Z,77.52
2022-12-03T18:10:34.988Z,76.54
2022-12-03T18:15:36.280Z,76.88
2022-12-03T18:20:37.485Z,76.61
2022-12-03T18:25:38.996Z,76.21
2022-12-03T18:30:40.332Z,76.81
2022-12-03T18:35:41.546Z,76.82
2022-12-03T18:40:42.792Z,76.14
2022-12-03T18:45:44.015Z,76.01
2022-12-03T18:50:45.334Z,79.01
2022-12-03T18:55:46.621Z,76.12
2022-12-03T19:00:47.940Z,77.07
2022-12-03T19:05:49.295Z,79.87
2022-12-03T19:10:50.504Z,76.67
2022-12-03T19:15:54.849Z,77.32
2022-12-03T19:20:56.224Z,77.61
2022-12-03T19:25:57.510Z,77.43
2022-12-03T19:30:58.881Z,76.85
2022-12-03T19:36:00.097Z,77.44
2022-12-03T19:41:01.312Z,77.03
2022-12-03T19:46:02.682Z,77.72
2022-12-03T19:51:26.611Z,78.51
2022-12-03T19:56:25.273Z,77.00
2022-12-03T20:01:26.614Z,77.20
2022-12-03T20:06:27.980Z,76.98
2022-12-03T20:11:29.267Z,76.88
2022-12-03T20:16:30.537Z,76.86
2022-12-03T20:21:31.887Z,77.94
2022-12-03T20:26:33.145Z,78.18
2022-12-03T20:31:34.545Z,78.73
2022-12-03T20:36:36.009Z,77.50
2022-12-03T20:41:37.529Z,77.57
2022-12-03T20:46:39.069Z,77.44
2022-12-03T20:51:42.339Z,77.42
2022-12-03T20:56:43.740Z,78.03
2022-12-03T21:01:45.167Z,78.22
2022-12-03T21:06:46.904Z,78.05
2022-12-03T21:11:48.862Z,78.42
2022-12-03T21:17:07.859Z,78.72
2022-12-03T21:22:09.994Z,78.11
2022-12-03T21:27:11.278Z,78.76
2022-12-03T21:32:21.613Z,78.66
2022-12-03T21:37:23.022Z,78.66
2022-12-03T21:42:36.013Z,78.26
2022-12-03T21:47:38.274Z,77.35
2022-12-03T21:52:39.588Z,77.56
2022-12-03T21:57:40.859Z,77.68
2022-12-03T22:02:42.221Z,77.49
2022-12-03T22:07:43.634Z,78.24
2022-12-03T22:12:44.916Z,78.37
2022-12-03T22:17:46.136Z,78.71
2022-12-03T22:22:47.384Z,78.17
2022-12-03T22:27:48.648Z,78.05
2022-12-03T22:32:49.879Z,77.75
2022-12-03T22:37:51.128Z,77.40
2022-12-03T22:42:52.377Z,78.25
2022-12-03T22:47:53.645Z,78.55
2022-12-03T22:52:54.909Z,79.03
2022-12-03T22:57:56.204Z,79.52
2022-12-03T23:02:57.566Z,78.39
2022-12-03T23:07:58.928Z,78.37
2022-12-03T23:13:00.271Z,78.58
2022-12-03T23:18:01.550Z,78.57
2022-12-03T23:23:02.805Z,78.45
2022-12-03T23:28:04.111Z,77.70
2022-12-03T23:33:05.427Z,77.75
2022-12-03T23:38:06.736Z,78.40
2022-12-03T23:43:08.026Z,79.35
2022-12-03T23:48:09.308Z,78.87
2022-12-03T23:53:10.683Z,77.87
2022-12-03T23:58:11.930Z,77.80
